DFOO

Bobo Dioulasso Airport

Bobo Dioulasso, Burkina Faso
METAR DFOO 152200Z 00000KT CAVOK 26/22 Q1017
Observed Flight Rules
Aug-15 @ 22:00 UTC (27 minutes ago) Visual Flight Rules
Visibility Clouds
10,000+ meters
  • Clear skies
Temperatures Readings
Current 26°C / 79°F
Dewpoint 22°C / 72°F
Humidity 79%
Altimeter 30.03" Hg
Pressure 1017 hPa
Elevation 460
METAR DFOO 152200Z 00000KT CAVOK 26/22 Q1017
Observed Flight Rules
Aug-15 @ 22:00 UTC
(27 minutes ago)
VFR
Clouds
  • Clear skies
Temperature Dewpoint
26°C / 79°F 22°C / 72°F
Humidity Altimeter Pressure
79% 30.03" Hg 1017 hPa